Time;durP1;ratioP1;P1;durP2;ratioP2;P2;SDS_P1;SDS_P2;PMS_P1;PMS_P2;Temp;Humidity;BMP_temperature;BMP_pressure;BME280_temperature;BME280_humidity;BME280_pressure;Samples;Min_cycle;Max_cycle;Signal;HPM_P1;HPM_P2
2021/09/16 00:01:42;;;;;;;3.70;1.90;;;;;;;;;;21169411;28;20051;-56
2021/09/16 00:11:45;;;;;;;4.57;2.17;;;;;;;;;;21168039;28;20043;-52
2021/09/16 00:21:47;;;;;;;4.28;1.80;;;;;;;;;;21167233;28;20052;-52
2021/09/16 00:31:49;;;;;;;2.33;1.55;;;;;;;;;;21166741;28;20498;-51
2021/09/16 00:41:51;;;;;;;5.20;1.77;;;;;;;;;;21165639;28;20089;-52
2021/09/16 00:51:54;;;;;;;3.97;1.67;;;;;;;;;;21165902;28;20055;-53
2021/09/16 01:01:56;;;;;;;4.43;2.58;;;;;;;;;;21164561;28;20075;-53
2021/09/16 01:11:59;;;;;;;5.40;2.10;;;;;;;;;;21163574;28;20083;-55
2021/09/16 01:22:04;;;;;;;3.88;2.05;;;;;;;;;;21181331;28;20054;-61
2021/09/16 01:32:07;;;;;;;5.45;1.90;;;;;;;;;;21163122;28;20047;-63
2021/09/16 01:42:11;;;;;;;4.00;1.80;;;;;;;;;;21163099;28;20055;-52
2021/09/16 01:52:18;;;;;;;4.68;2.35;;;;;;;;;;21161791;28;20047;-62
2021/09/16 02:02:24;;;;;;;4.95;2.80;;;;;;;;;;21161294;28;20580;-52
2021/09/16 02:12:30;;;;;;;7.82;2.90;;;;;;;;;;21167580;28;20043;-57
2021/09/16 02:22:33;;;;;;;6.30;2.85;;;;;;;;;;21176650;28;20134;-55
2021/09/16 02:32:36;;;;;;;4.38;2.58;;;;;;;;;;21176094;28;20057;-52
2021/09/16 02:42:40;;;;;;;4.93;3.20;;;;;;;;;;21175274;28;20047;-53
2021/09/16 02:52:48;;;;;;;2.72;2.05;;;;;;;;;;21174678;28;20054;-54
2021/09/16 03:02:53;;;;;;;4.63;3.45;;;;;;;;;;21174004;28;20056;-58
2021/09/16 03:13:15;;;;;;;6.68;4.35;;;;;;;;;;21177652;28;20388;-59
2021/09/16 03:23:22;;;;;;;5.75;4.25;;;;;;;;;;21173513;28;20051;-61
2021/09/16 03:33:43;;;;;;;5.85;4.22;;;;;;;;;;21173762;28;20505;-53
2021/09/16 03:43:48;;;;;;;6.22;3.90;;;;;;;;;;21171149;28;20157;-53
2021/09/16 03:53:54;;;;;;;9.30;4.50;;;;;;;;;;21170590;28;20521;-53
2021/09/16 04:04:02;;;;;;;6.78;5.20;;;;;;;;;;21168962;28;20050;-54
2021/09/16 04:14:24;;;;;;;6.80;4.20;;;;;;;;;;21170130;28;20373;-52
2021/09/16 04:24:34;;;;;;;8.63;5.07;;;;;;;;;;21168437;28;20048;-53
2021/09/16 04:34:47;;;;;;;7.27;4.80;;;;;;;;;;21166981;28;20040;-52
2021/09/16 04:45:06;;;;;;;5.55;4.80;;;;;;;;;;21166303;28;20054;-52
2021/09/16 04:55:28;;;;;;;4.75;2.70;;;;;;;;;;21165154;28;20044;-55
2021/09/16 05:05:39;;;;;;;6.10;2.97;;;;;;;;;;21164249;28;20075;-54
2021/09/16 05:15:47;;;;;;;5.03;2.13;;;;;;;;;;21163632;28;20074;-54
2021/09/16 05:25:49;;;;;;;5.10;2.30;;;;;;;;;;21164554;28;20107;-52
2021/09/16 05:35:52;;;;;;;5.20;2.13;;;;;;;;;;21163519;28;20127;-53
2021/09/16 05:45:55;;;;;;;7.00;4.03;;;;;;;;;;21168095;28;20079;-53
2021/09/16 05:55:57;;;;;;;13.23;6.97;;;;;;;;;;21180104;28;20393;-53
2021/09/16 06:06:01;;;;;;;11.20;6.70;;;;;;;;;;21178739;28;20051;-54
2021/09/16 06:16:04;;;;;;;11.05;6.43;;;;;;;;;;21177267;28;20292;-53
2021/09/16 06:26:07;;;;;;;10.37;6.57;;;;;;;;;;21176821;28;20127;-52
2021/09/16 06:36:12;;;;;;;15.27;6.20;;;;;;;;;;21175621;28;20066;-52
2021/09/16 06:46:16;;;;;;;12.82;6.18;;;;;;;;;;21175449;28;20502;-52
2021/09/16 06:56:18;;;;;;;18.83;8.17;;;;;;;;;;21174605;28;20051;-54
2021/09/16 07:06:22;;;;;;;17.58;9.73;;;;;;;;;;21173603;28;20047;-52
2021/09/16 07:16:29;;;;;;;13.93;7.30;;;;;;;;;;21173186;28;20505;-52
2021/09/16 07:26:33;;;;;;;17.85;8.13;;;;;;;;;;21171918;28;20043;-53
2021/09/16 07:36:35;;;;;;;19.65;9.45;;;;;;;;;;21171928;28;20452;-53
2021/09/16 07:46:37;;;;;;;24.33;11.77;;;;;;;;;;21170854;28;20134;-52
2021/09/16 07:56:44;;;;;;;18.80;8.88;;;;;;;;;;21169778;28;20057;-56
2021/09/16 08:06:46;;;;;;;17.75;7.40;;;;;;;;;;21169496;28;20059;-53
2021/09/16 08:16:49;;;;;;;15.20;7.63;;;;;;;;;;21168484;28;20047;-52
2021/09/16 08:26:56;;;;;;;13.85;7.13;;;;;;;;;;21167805;28;20063;-52
2021/09/16 08:36:58;;;;;;;15.70;6.63;;;;;;;;;;21167156;28;20044;-54
2021/09/16 08:47:03;;;;;;;11.82;6.72;;;;;;;;;;21165952;28;20052;-53
2021/09/16 08:57:13;;;;;;;13.00;6.50;;;;;;;;;;21165290;28;20083;-53
2021/09/16 09:07:19;;;;;;;8.88;5.03;;;;;;;;;;21164237;28;20070;-51
2021/09/16 09:17:23;;;;;;;12.60;6.22;;;;;;;;;;21163724;28;20156;-59
2021/09/16 09:27:27;;;;;;;11.55;6.65;;;;;;;;;;21162053;28;20474;-54
2021/09/16 09:37:36;;;;;;;14.98;7.32;;;;;;;;;;21162086;28;20389;-66
2021/09/16 09:47:47;;;;;;;12.82;6.20;;;;;;;;;;21162782;28;20483;-55
2021/09/16 09:58:03;;;;;;;14.98;7.82;;;;;;;;;;21161554;28;20077;-58
2021/09/16 10:08:05;;;;;;;12.57;7.15;;;;;;;;;;21174256;28;20548;-54
2021/09/16 10:18:08;;;;;;;15.38;7.05;;;;;;;;;;21160959;28;20098;-53
2021/09/16 10:28:13;;;;;;;15.88;7.30;;;;;;;;;;21143371;28;20059;-57
2021/09/16 10:38:17;;;;;;;9.55;5.70;;;;;;;;;;21174690;28;20420;-58
2021/09/16 10:48:23;;;;;;;10.65;4.93;;;;;;;;;;21176511;28;20509;-59
2021/09/16 10:58:26;;;;;;;9.65;5.20;;;;;;;;;;21172923;28;20407;-54
2021/09/16 11:08:47;;;;;;;10.20;5.38;;;;;;;;;;21173081;28;20077;-55
2021/09/16 11:18:52;;;;;;;8.97;3.97;;;;;;;;;;21172021;28;20407;-55
2021/09/16 11:29:09;;;;;;;5.53;3.90;;;;;;;;;;21171993;28;20047;-59
2021/09/16 11:39:16;;;;;;;6.03;3.10;;;;;;;;;;21169996;28;20100;-59
2021/09/16 11:49:21;;;;;;;2.83;1.80;;;;;;;;;;21168965;28;20051;-61
2021/09/16 11:59:25;;;;;;;4.45;1.58;;;;;;;;;;21169584;28;20051;-56
2021/09/16 12:09:27;;;;;;;8.10;1.90;;;;;;;;;;21169449;28;20051;-52
2021/09/16 12:19:30;;;;;;;2.88;1.58;;;;;;;;;;21168798;28;20546;-61
2021/09/16 12:29:35;;;;;;;7.07;4.15;;;;;;;;;;21168300;28;20050;-55
2021/09/16 12:39:42;;;;;;;4.90;2.20;;;;;;;;;;21148503;28;20056;-59
2021/09/16 12:49:51;;;;;;;4.72;3.05;;;;;;;;;;21165709;28;20055;-58
2021/09/16 12:59:54;;;;;;;4.90;2.35;;;;;;;;;;21165220;28;20043;-59
2021/09/16 13:10:16;;;;;;;5.70;2.63;;;;;;;;;;21164672;28;20051;-60
2021/09/16 13:20:19;;;;;;;3.97;1.90;;;;;;;;;;21164411;28;20495;-59
2021/09/16 13:30:22;;;;;;;6.20;2.40;;;;;;;;;;21163321;28;20048;-56
2021/09/16 13:40:26;;;;;;;4.88;2.30;;;;;;;;;;21162652;28;20043;-60
2021/09/16 13:50:33;;;;;;;6.97;4.75;;;;;;;;;;21162795;28;20062;-64
2021/09/16 14:00:36;;;;;;;3.90;2.33;;;;;;;;;;21161846;28;20407;-62
2021/09/16 14:10:39;;;;;;;5.47;1.92;;;;;;;;;;21172591;28;20087;-58
2021/09/16 14:20:43;;;;;;;6.90;2.78;;;;;;;;;;21178074;28;20047;-60
2021/09/16 14:30:46;;;;;;;3.92;2.20;;;;;;;;;;21177416;28;20093;-56
2021/09/16 14:40:48;;;;;;;5.50;2.05;;;;;;;;;;21159502;28;20123;-53
2021/09/16 14:50:50;;;;;;;3.83;1.65;;;;;;;;;;21175789;28;20503;-55
2021/09/16 15:00:52;;;;;;;4.87;2.03;;;;;;;;;;21156016;28;20060;-52
2021/09/16 15:10:54;;;;;;;;;;;;;;;;;;21175150;28;20459;-55
2021/09/16 15:20:56;;;;;;;4.87;2.00;;;;;;;;;;21173199;28;20269;-54
2021/09/16 15:30:59;;;;;;;;;;;;;;;;;;21173263;28;20479;-55
2021/09/16 15:41:02;;;;;;;3.60;1.95;;;;;;;;;;21171418;28;19976;-54
2021/09/16 15:51:05;;;;;;;4.45;2.28;;;;;;;;;;21171018;28;20068;-56
2021/09/16 16:01:07;;;;;;;;;;;;;;;;;;21170220;28;20511;-55
2021/09/16 16:11:10;;;;;;;3.38;1.85;;;;;;;;;;21167822;28;19920;-55
2021/09/16 16:21:13;;;;;;;4.57;1.65;;;;;;;;;;21168011;28;20530;-55
2021/09/16 16:31:16;;;;;;;7.88;1.58;;;;;;;;;;21166444;28;20043;-53
2021/09/16 16:41:18;;;;;;;2.95;1.95;;;;;;;;;;21165351;28;20092;-53
2021/09/16 16:51:20;;;;;;;5.40;1.52;;;;;;;;;;21146409;28;20089;-54
2021/09/16 17:01:22;;;;;;;2.83;1.60;;;;;;;;;;21163717;28;20051;-55
2021/09/16 17:11:24;;;;;;;2.83;1.63;;;;;;;;;;21163414;28;20051;-51
2021/09/16 17:21:26;;;;;;;4.30;1.65;;;;;;;;;;21164215;28;20507;-53
2021/09/16 17:31:28;;;;;;;3.53;1.45;;;;;;;;;;21161007;28;20100;-53
2021/09/16 17:41:29;;;;;;;2.38;1.30;;;;;;;;;;21161315;28;20044;-54
2021/09/16 17:51:31;;;;;;;4.50;1.25;;;;;;;;;;21162862;28;20075;-53
2021/09/16 18:01:35;;;;;;;2.25;1.17;;;;;;;;;;21161894;28;20056;-54
2021/09/16 18:11:37;;;;;;;2.20;1.30;;;;;;;;;;21143611;28;20054;-60
2021/09/16 18:21:39;;;;;;;4.57;1.50;;;;;;;;;;21160843;28;20050;-54
2021/09/16 18:31:40;;;;;;;3.83;1.40;;;;;;;;;;21160818;28;20083;-54
2021/09/16 18:41:42;;;;;;;5.13;1.87;;;;;;;;;;21159936;28;20052;-56
2021/09/16 18:51:44;;;;;;;4.75;2.72;;;;;;;;;;21161985;28;20044;-56
2021/09/16 19:01:46;;;;;;;2.90;1.67;;;;;;;;;;21174678;28;20056;-53
2021/09/16 19:11:48;;;;;;;8.93;4.70;;;;;;;;;;21173523;28;20091;-53
2021/09/16 19:21:50;;;;;;;6.27;4.33;;;;;;;;;;21172721;28;20062;-56
2021/09/16 19:31:52;;;;;;;6.10;4.50;;;;;;;;;;21172753;28;20051;-54
2021/09/16 19:41:54;;;;;;;5.67;3.00;;;;;;;;;;21171139;28;20403;-54
2021/09/16 19:51:56;;;;;;;;;;;;;;;;;;21170762;28;20048;-57
2021/09/16 20:01:58;;;;;;;6.25;3.92;;;;;;;;;;21169409;28;19969;-58
2021/09/16 20:12:00;;;;;;;;;;;;;;;;;;21168518;28;20106;-54
2021/09/16 20:22:02;;;;;;;3.83;2.72;;;;;;;;;;21167223;28;19931;-62
2021/09/16 20:32:04;;;;;;;4.23;2.67;;;;;;;;;;21166880;28;20487;-54
2021/09/16 20:42:08;;;;;;;3.83;2.30;;;;;;;;;;21166028;28;20051;-59
2021/09/16 20:52:10;;;;;;;3.92;2.40;;;;;;;;;;21166718;28;20403;-54
2021/09/16 21:02:12;;;;;;;6.63;4.10;;;;;;;;;;21164740;28;20144;-54
2021/09/16 21:12:14;;;;;;;5.93;3.20;;;;;;;;;;21164535;28;20048;-53
2021/09/16 21:22:19;;;;;;;4.90;2.33;;;;;;;;;;21163868;28;20472;-53
2021/09/16 21:32:21;;;;;;;3.90;2.55;;;;;;;;;;21164620;28;20407;-53
2021/09/16 21:42:23;;;;;;;4.10;2.40;;;;;;;;;;21163030;28;20048;-53
2021/09/16 21:52:25;;;;;;;4.47;2.57;;;;;;;;;;21162738;28;20054;-52
2021/09/16 22:02:27;;;;;;;4.82;2.10;;;;;;;;;;21162320;28;20407;-52
2021/09/16 22:12:30;;;;;;;6.13;3.88;;;;;;;;;;21144050;28;20459;-53
2021/09/16 22:22:32;;;;;;;3.93;1.80;;;;;;;;;;21161147;28;20056;-53
2021/09/16 22:32:35;;;;;;;5.47;2.33;;;;;;;;;;21172514;28;20047;-53
2021/09/16 22:42:37;;;;;;;2.93;1.80;;;;;;;;;;21176892;28;20389;-53
2021/09/16 22:52:39;;;;;;;2.40;1.40;;;;;;;;;;21175768;28;20415;-53
2021/09/16 23:02:41;;;;;;;5.30;1.90;;;;;;;;;;21174792;28;20058;-52
2021/09/16 23:12:43;;;;;;;3.95;2.30;;;;;;;;;;21174377;28;20051;-54
2021/09/16 23:22:44;;;;;;;2.58;1.42;;;;;;;;;;21173553;28;20483;-53
2021/09/16 23:32:46;;;;;;;2.85;1.48;;;;;;;;;;21154777;28;20059;-55
2021/09/16 23:42:48;;;;;;;3.83;1.70;;;;;;;;;;21172176;28;20419;-53
2021/09/16 23:52:50;;;;;;;2.83;1.70;;;;;;;;;;21163804;28;20132;-52
